Time;durP1;ratioP1;P1;durP2;ratioP2;P2;SDS_P1;SDS_P2;PMS_P1;PMS_P2;Temp;Humidity;BMP_temperature;BMP_pressure;BME280_temperature;BME280_humidity;BME280_pressure;Samples;Min_cycle;Max_cycle;Signal;HPM_P1;HPM_P2
2022/07/05 00:02:21;;;;;;;;;;;;;;;;;;5094479;28;20052;-76
2022/07/05 00:04:47;;;;;;;0.73;0.73;;;;;;;;;;5093819;28;20002;-76
2022/07/05 00:07:20;;;;;;;3.58;0.90;;;;;;;;;;5093814;28;20164;-76
2022/07/05 00:09:51;;;;;;;1.63;1.30;;;;;;;;;;5092697;28;20067;-76
2022/07/05 00:12:18;;;;;;;3.20;1.02;;;;;;;;;;5093806;28;20079;-76
2022/07/05 00:14:47;;;;;;;1.25;1.08;;;;;;;;;;5088809;28;20088;-76
2022/07/05 00:17:14;;;;;;;5.10;1.83;;;;;;;;;;5075600;28;20526;-76
2022/07/05 00:19:40;;;;;;;1.93;1.27;;;;;;;;;;5088729;28;20697;-76
2022/07/05 00:22:07;;;;;;;1.50;1.30;;;;;;;;;;5091937;28;20460;-76
2022/07/05 00:24:33;;;;;;;2.97;1.33;;;;;;;;;;5092241;28;20079;-76
2022/07/05 00:27:00;;;;;;;3.03;1.20;;;;;;;;;;5093683;28;20442;-76
2022/07/05 00:29:27;;;;;;;5.43;1.30;;;;;;;;;;5093661;28;20048;-76
2022/07/05 00:31:54;;;;;;;1.30;0.93;;;;;;;;;;5093223;28;20484;-76
2022/07/05 00:34:20;;;;;;;4.65;1.30;;;;;;;;;;5091917;28;20048;-76
2022/07/05 00:36:46;;;;;;;2.70;1.20;;;;;;;;;;5093469;28;20101;-76
2022/07/05 00:39:13;;;;;;;1.38;1.10;;;;;;;;;;5092239;28;20086;-77
2022/07/05 00:41:39;;;;;;;2.95;0.90;;;;;;;;;;5093056;28;20499;-77
2022/07/05 00:44:07;;;;;;;2.40;0.95;;;;;;;;;;5092782;28;20539;-76
2022/07/05 00:46:35;;;;;;;1.83;1.05;;;;;;;;;;5093120;28;20469;-77
2022/07/05 00:49:01;;;;;;;3.30;1.88;;;;;;;;;;5093697;28;20442;-77
2022/07/05 00:51:32;;;;;;;2.78;1.40;;;;;;;;;;5093287;28;20105;-77
2022/07/05 00:53:59;;;;;;;1.92;1.00;;;;;;;;;;5092939;28;20438;-77
2022/07/05 00:56:26;;;;;;;2.03;1.30;;;;;;;;;;5093178;28;20056;-77
2022/07/05 00:58:52;;;;;;;2.08;1.13;;;;;;;;;;5091435;28;20086;-77
2022/07/05 01:01:19;;;;;;;2.08;0.85;;;;;;;;;;5092777;28;20048;-77
2022/07/05 01:03:46;;;;;;;1.90;1.10;;;;;;;;;;5092656;28;20145;-77
2022/07/05 01:06:13;;;;;;;2.63;1.23;;;;;;;;;;5092956;28;20047;-77
2022/07/05 01:08:44;;;;;;;1.63;1.20;;;;;;;;;;5091388;28;20075;-77
2022/07/05 01:11:11;;;;;;;2.70;1.20;;;;;;;;;;5092515;28;20090;-77
2022/07/05 01:13:38;;;;;;;1.90;1.20;;;;;;;;;;5092924;28;20453;-77
2022/07/05 01:16:04;;;;;;;1.55;1.38;;;;;;;;;;5092358;28;20094;-77
2022/07/05 01:18:32;;;;;;;0.93;0.93;;;;;;;;;;5092645;28;20106;-76
2022/07/05 01:20:59;;;;;;;3.25;1.25;;;;;;;;;;5092433;28;20052;-77
2022/07/05 01:23:26;;;;;;;2.03;1.33;;;;;;;;;;5092647;28;20044;-77
2022/07/05 01:25:54;;;;;;;2.78;1.20;;;;;;;;;;5092698;28;20101;-76
2022/07/05 01:28:20;;;;;;;2.03;1.00;;;;;;;;;;5092585;28;20097;-77
2022/07/05 01:30:47;;;;;;;3.92;1.38;;;;;;;;;;5092249;28;20117;-77
2022/07/05 01:33:13;;;;;;;2.20;1.63;;;;;;;;;;5092428;28;20054;-77
2022/07/05 01:35:40;;;;;;;1.40;1.30;;;;;;;;;;5092523;28;20056;-77
2022/07/05 01:38:06;;;;;;;1.85;1.75;;;;;;;;;;5092190;28;20063;-77
2022/07/05 01:40:33;;;;;;;2.42;1.88;;;;;;;;;;5092099;28;20083;-77
2022/07/05 01:42:59;;;;;;;2.60;1.83;;;;;;;;;;5091964;28;20459;-77
2022/07/05 01:45:42;;;;;;;2.58;1.60;;;;;;;;;;5091946;28;20052;-76
2022/07/05 01:48:09;;;;;;;1.50;1.40;;;;;;;;;;5092330;28;20047;-77
2022/07/05 01:51:02;;;;;;;4.40;1.13;;;;;;;;;;5092227;28;20111;-77
2022/07/05 01:53:30;;;;;;;1.38;1.10;;;;;;;;;;5088206;28;20052;-77
2022/07/05 01:55:57;;;;;;;2.67;1.20;;;;;;;;;;5091919;28;20051;-77
2022/07/05 01:58:24;;;;;;;0.85;0.85;;;;;;;;;;5092063;28;20087;-77
2022/07/05 02:00:51;;;;;;;1.83;1.05;;;;;;;;;;5091871;28;20504;-77
2022/07/05 02:03:18;;;;;;;2.13;1.10;;;;;;;;;;5090896;28;20109;-77
2022/07/05 02:06:07;;;;;;;2.28;1.20;;;;;;;;;;5091665;28;20509;-77
2022/07/05 02:08:34;;;;;;;1.30;1.17;;;;;;;;;;5091864;28;20047;-77
2022/07/05 02:11:00;;;;;;;2.35;1.27;;;;;;;;;;5091601;28;20549;-77
2022/07/05 02:13:26;;;;;;;2.97;1.42;;;;;;;;;;5091735;28;20423;-77
2022/07/05 02:15:53;;;;;;;1.50;1.20;;;;;;;;;;5091991;28;20047;-77
2022/07/05 02:18:19;;;;;;;2.40;0.90;;;;;;;;;;5091915;28;20121;-77
2022/07/05 02:20:46;;;;;;;1.30;1.13;;;;;;;;;;5091474;28;20423;-77
2022/07/05 02:23:12;;;;;;;0.80;0.80;;;;;;;;;;5090271;28;20504;-77
2022/07/05 02:25:39;;;;;;;2.03;1.10;;;;;;;;;;5091701;28;20048;-77
2022/07/05 02:28:05;;;;;;;2.03;1.33;;;;;;;;;;5091844;28;20048;-77
2022/07/05 02:30:32;;;;;;;2.38;1.10;;;;;;;;;;5091418;28;20097;-77
2022/07/05 02:32:58;;;;;;;2.30;1.00;;;;;;;;;;5093316;28;20086;-77
2022/07/05 02:35:25;;;;;;;1.63;0.98;;;;;;;;;;5094215;28;20048;-77
2022/07/05 02:37:51;;;;;;;1.13;1.00;;;;;;;;;;5095475;28;20508;-77
2022/07/05 02:40:17;;;;;;;1.02;0.77;;;;;;;;;;5095479;28;20052;-77
2022/07/05 02:42:44;;;;;;;1.10;1.00;;;;;;;;;;5095311;28;20101;-77
2022/07/05 02:45:10;;;;;;;0.93;0.90;;;;;;;;;;5095237;28;20101;-77
2022/07/05 02:47:37;;;;;;;0.93;0.90;;;;;;;;;;5094055;28;20496;-77
2022/07/05 02:50:05;;;;;;;1.30;1.20;;;;;;;;;;5095650;28;20090;-77
2022/07/05 02:52:31;;;;;;;;;;;;;;;;;;5096010;28;20066;-78
2022/07/05 02:54:57;;;;;;;1.05;1.00;;;;;;;;;;5095454;28;19924;-77
2022/07/05 02:57:24;;;;;;;0.95;0.82;;;;;;;;;;5095439;28;20158;-77
2022/07/05 02:59:53;;;;;;;1.77;1.00;;;;;;;;;;5095435;28;20051;-77
2022/07/05 03:02:19;;;;;;;2.58;1.10;;;;;;;;;;5095100;28;20087;-77
2022/07/05 03:04:46;;;;;;;2.20;1.30;;;;;;;;;;5095268;28;20082;-77
2022/07/05 03:07:12;;;;;;;3.28;1.13;;;;;;;;;;5095204;28;20093;-77
2022/07/05 03:09:39;;;;;;;1.77;0.95;;;;;;;;;;5094866;28;20087;-77
2022/07/05 03:12:06;;;;;;;4.07;1.17;;;;;;;;;;5095173;28;20083;-77
2022/07/05 03:14:32;;;;;;;1.85;1.17;;;;;;;;;;5094952;28;20048;-77
2022/07/05 03:16:59;;;;;;;1.45;1.15;;;;;;;;;;5094699;28;20529;-77
2022/07/05 03:19:25;;;;;;;1.80;1.10;;;;;;;;;;5095046;28;20080;-77
2022/07/05 03:21:52;;;;;;;1.38;1.17;;;;;;;;;;5094706;28;20483;-77
2022/07/05 03:24:18;;;;;;;1.60;0.90;;;;;;;;;;5094790;28;20457;-77
2022/07/05 03:26:45;;;;;;;2.47;1.00;;;;;;;;;;5094562;28;20552;-77
2022/07/05 03:29:11;;;;;;;2.05;1.05;;;;;;;;;;5094896;28;20453;-77
2022/07/05 03:31:37;;;;;;;2.00;0.88;;;;;;;;;;5094794;28;20086;-77
2022/07/05 03:34:04;;;;;;;3.22;1.40;;;;;;;;;;5094403;28;20079;-77
2022/07/05 03:36:31;;;;;;;1.17;1.05;;;;;;;;;;5094749;28;20051;-78
2022/07/05 03:38:57;;;;;;;0.98;0.93;;;;;;;;;;5094652;28;20137;-78
2022/07/05 03:41:24;;;;;;;1.85;0.70;;;;;;;;;;5094626;28;20101;-78
2022/07/05 03:43:50;;;;;;;1.27;1.10;;;;;;;;;;5093917;28;20464;-78
2022/07/05 03:46:16;;;;;;;1.48;0.80;;;;;;;;;;5094196;28;20091;-78
2022/07/05 03:48:43;;;;;;;2.38;1.20;;;;;;;;;;5094422;28;20052;-78
2022/07/05 03:51:09;;;;;;;0.70;0.70;;;;;;;;;;5094519;28;20044;-78
2022/07/05 03:53:36;;;;;;;1.52;1.17;;;;;;;;;;5094418;28;20392;-78
2022/07/05 03:56:03;;;;;;;1.30;1.20;;;;;;;;;;5094113;28;20044;-78
2022/07/05 03:58:29;;;;;;;2.60;0.75;;;;;;;;;;5093916;28;20458;-77
2022/07/05 04:00:56;;;;;;;1.25;1.15;;;;;;;;;;5094232;28;20411;-77
2022/07/05 04:03:22;;;;;;;2.60;1.25;;;;;;;;;;5094079;28;20110;-77
2022/07/05 04:05:49;;;;;;;2.38;0.75;;;;;;;;;;5093860;28;20135;-77
2022/07/05 04:08:15;;;;;;;1.40;0.98;;;;;;;;;;5092566;28;20079;-77
2022/07/05 04:10:42;;;;;;;2.97;1.00;;;;;;;;;;5094076;28;20079;-77
2022/07/05 04:13:08;;;;;;;2.80;0.82;;;;;;;;;;5093874;28;20047;-77
2022/07/05 04:15:34;;;;;;;1.13;1.02;;;;;;;;;;5093965;28;20076;-77
2022/07/05 04:18:01;;;;;;;2.42;1.15;;;;;;;;;;5093996;28;20090;-77
2022/07/05 04:20:27;;;;;;;2.85;1.20;;;;;;;;;;5093779;28;20085;-77
2022/07/05 04:22:55;;;;;;;1.10;1.00;;;;;;;;;;5093877;28;20140;-77
2022/07/05 04:25:21;;;;;;;1.75;0.98;;;;;;;;;;5093487;28;20080;-78
2022/07/05 04:27:52;;;;;;;1.20;1.10;;;;;;;;;;5093474;28;20048;-78
2022/07/05 04:30:19;;;;;;;2.00;1.00;;;;;;;;;;5093579;28;20136;-78
2022/07/05 04:32:46;;;;;;;1.98;0.93;;;;;;;;;;5092293;28;20047;-78
2022/07/05 04:35:12;;;;;;;0.93;0.80;;;;;;;;;;5093211;28;20500;-78
2022/07/05 04:37:39;;;;;;;1.20;1.10;;;;;;;;;;5093583;28;20080;-78
2022/07/05 04:40:07;;;;;;;1.40;1.02;;;;;;;;;;5093177;28;20503;-78
2022/07/05 04:42:33;;;;;;;1.60;1.50;;;;;;;;;;5092154;28;20059;-78
2022/07/05 04:45:00;;;;;;;3.03;1.25;;;;;;;;;;5092973;28;20113;-78
2022/07/05 04:47:27;;;;;;;2.25;1.08;;;;;;;;;;5093371;28;20040;-78
2022/07/05 04:49:54;;;;;;;1.92;1.00;;;;;;;;;;5093224;28;20044;-78
2022/07/05 04:52:20;;;;;;;1.45;1.35;;;;;;;;;;5092980;28;20048;-78
2022/07/05 04:54:47;;;;;;;1.38;0.93;;;;;;;;;;5092623;28;20048;-75
2022/07/05 04:57:13;;;;;;;1.90;1.10;;;;;;;;;;5092644;28;20453;-76
2022/07/05 04:59:40;;;;;;;2.08;1.30;;;;;;;;;;5092920;28;20048;-75
2022/07/05 05:02:07;;;;;;;2.53;1.17;;;;;;;;;;5093189;28;20055;-76
2022/07/05 05:04:33;;;;;;;1.00;0.90;;;;;;;;;;5092905;28;20131;-75
2022/07/05 05:07:00;;;;;;;1.55;1.05;;;;;;;;;;5091535;28;20071;-75
2022/07/05 05:09:26;;;;;;;3.28;1.35;;;;;;;;;;5092479;28;20548;-75
2022/07/05 05:11:53;;;;;;;2.90;1.23;;;;;;;;;;5092847;28;20453;-74
2022/07/05 05:14:19;;;;;;;1.73;1.20;;;;;;;;;;5092857;28;20466;-75
2022/07/05 05:16:45;;;;;;;2.70;1.30;;;;;;;;;;5092493;28;20086;-75
2022/07/05 05:19:12;;;;;;;2.83;1.40;;;;;;;;;;5092577;28;20393;-78
2022/07/05 05:21:38;;;;;;;3.15;1.20;;;;;;;;;;5092636;28;20411;-76
2022/07/05 05:24:05;;;;;;;2.15;1.20;;;;;;;;;;5092863;28;20383;-75
2022/07/05 05:26:32;;;;;;;1.40;1.27;;;;;;;;;;5092429;28;20564;-78
2022/07/05 05:28:58;;;;;;;2.20;1.10;;;;;;;;;;5092629;28;20052;-75
2022/07/05 05:31:25;;;;;;;1.58;1.10;;;;;;;;;;5092233;28;20495;-76
2022/07/05 05:33:52;;;;;;;2.38;1.30;;;;;;;;;;5092456;28;20044;-76
2022/07/05 05:36:18;;;;;;;2.50;1.50;;;;;;;;;;5092504;28;20052;-76
2022/07/05 05:38:44;;;;;;;3.05;2.15;;;;;;;;;;5092069;28;20052;-74
2022/07/05 05:41:16;;;;;;;1.45;1.35;;;;;;;;;;5091116;28;20044;-76
2022/07/05 05:43:42;;;;;;;1.27;1.20;;;;;;;;;;5090678;28;20109;-76
2022/07/05 05:46:09;;;;;;;1.48;1.38;;;;;;;;;;5092281;28;20097;-76
2022/07/05 05:48:36;;;;;;;1.40;1.30;;;;;;;;;;5092010;28;20044;-79
2022/07/05 05:51:02;;;;;;;2.08;1.30;;;;;;;;;;5091907;28;20036;-76
2022/07/05 05:53:29;;;;;;;2.40;1.23;;;;;;;;;;5092232;28;20460;-77
2022/07/05 05:55:56;;;;;;;6.10;1.57;;;;;;;;;;5091880;28;20080;-77
2022/07/05 05:58:26;;;;;;;1.10;1.00;;;;;;;;;;5090642;28;20403;-77
2022/07/05 06:00:52;;;;;;;4.35;1.55;;;;;;;;;;5090630;28;20093;-77
2022/07/05 06:03:19;;;;;;;1.13;1.10;;;;;;;;;;5091870;28;20105;-77
2022/07/05 06:05:46;;;;;;;1.88;1.23;;;;;;;;;;5090258;28;20181;-76
2022/07/05 06:08:12;;;;;;;1.48;1.23;;;;;;;;;;5090384;28;20075;-75
2022/07/05 06:10:39;;;;;;;1.60;1.48;;;;;;;;;;5091497;28;20097;-74
2022/07/05 06:13:07;;;;;;;1.47;1.37;;;;;;;;;;5091199;28;20062;-75
2022/07/05 06:15:33;;;;;;;2.05;1.50;;;;;;;;;;5091608;28;20070;-74
2022/07/05 06:17:59;;;;;;;3.85;1.30;;;;;;;;;;5091214;28;20432;-76
2022/07/05 06:20:28;;;;;;;2.55;1.63;;;;;;;;;;5091475;28;20083;-76
2022/07/05 06:22:55;;;;;;;2.70;1.65;;;;;;;;;;5091342;28;20052;-76
2022/07/05 06:25:21;;;;;;;4.72;2.13;;;;;;;;;;5091171;28;20075;-74
2022/07/05 06:27:53;;;;;;;4.75;1.85;;;;;;;;;;5091394;28;20044;-76
2022/07/05 06:30:21;;;;;;;3.92;1.83;;;;;;;;;;5091413;28;20495;-79
2022/07/05 06:32:48;;;;;;;3.15;1.55;;;;;;;;;;5091483;28;20075;-78
2022/07/05 06:35:15;;;;;;;2.75;1.50;;;;;;;;;;5090793;28;20480;-77
2022/07/05 06:37:42;;;;;;;2.97;1.33;;;;;;;;;;5091004;28;20055;-74
2022/07/05 06:40:09;;;;;;;1.73;1.20;;;;;;;;;;5091369;28;20105;-75
2022/07/05 06:42:42;;;;;;;2.03;1.27;;;;;;;;;;5090848;28;20487;-79
2022/07/05 06:45:09;;;;;;;1.42;1.20;;;;;;;;;;5090429;28;20048;-80
2022/07/05 06:47:36;;;;;;;2.85;1.30;;;;;;;;;;5091303;28;20040;-80
2022/07/05 06:50:03;;;;;;;3.47;1.30;;;;;;;;;;5091132;28;20097;-77
2022/07/05 06:52:30;;;;;;;;;;;;;;;;;;5091648;28;20617;-79
2022/07/05 06:54:56;;;;;;;2.67;1.30;;;;;;;;;;5090594;28;20405;-79
2022/07/05 06:57:23;;;;;;;2.92;1.00;;;;;;;;;;5090934;28;20048;-81
2022/07/05 06:59:58;;;;;;;1.45;0.80;;;;;;;;;;5091596;28;20384;-79
2022/07/05 07:02:26;;;;;;;1.58;0.93;;;;;;;;;;5091163;28;20052;-66
2022/07/05 07:04:52;;;;;;;1.67;1.10;;;;;;;;;;5090262;28;20058;-65
2022/07/05 07:10:22;;;;;;;4.15;0.90;;;;;;;;;;5090861;28;20106;-67
2022/07/05 07:12:55;;;;;;;6.57;1.38;;;;;;;;;;5091459;28;20052;-67
2022/07/05 07:15:21;;;;;;;2.15;0.82;;;;;;;;;;5091421;28;20044;-67
2022/07/05 07:17:48;;;;;;;3.10;0.98;;;;;;;;;;5091518;28;20507;-67
2022/07/05 07:20:14;;;;;;;1.88;0.80;;;;;;;;;;5094362;28;20052;-67
2022/07/05 07:22:41;;;;;;;6.03;1.33;;;;;;;;;;5094700;28;20101;-67
2022/07/05 07:25:08;;;;;;;1.00;0.80;;;;;;;;;;5094346;28;20094;-67
2022/07/05 07:27:45;;;;;;;1.40;0.75;;;;;;;;;;5094743;28;20083;-68
2022/07/05 07:30:12;;;;;;;3.13;0.90;;;;;;;;;;5094913;28;20419;-67
2022/07/05 07:32:38;;;;;;;4.35;0.85;;;;;;;;;;5094700;28;20457;-68
2022/07/05 07:35:05;;;;;;;2.23;0.93;;;;;;;;;;5093210;28;20454;-67
2022/07/05 07:37:31;;;;;;;1.88;0.82;;;;;;;;;;5094366;28;20040;-66
2022/07/05 07:39:58;;;;;;;3.23;0.73;;;;;;;;;;5094009;28;20083;-68
2022/07/05 07:42:25;;;;;;;2.53;0.88;;;;;;;;;;5094283;28;20707;-74
2022/07/05 07:44:51;;;;;;;2.35;0.80;;;;;;;;;;5094088;28;20047;-74
2022/07/05 07:47:17;;;;;;;1.70;0.77;;;;;;;;;;5094385;28;20044;-74
2022/07/05 07:49:44;;;;;;;1.70;0.70;;;;;;;;;;5094161;28;20044;-74
2022/07/05 07:52:12;;;;;;;1.38;0.85;;;;;;;;;;5094451;28;20040;-67
2022/07/05 07:54:38;;;;;;;1.33;0.68;;;;;;;;;;5094164;28;20461;-67
2022/07/05 07:57:05;;;;;;;1.90;0.77;;;;;;;;;;5094064;28;20052;-67
2022/07/05 07:59:32;;;;;;;3.20;1.02;;;;;;;;;;5094119;28;20466;-67
2022/07/05 08:01:58;;;;;;;3.60;0.80;;;;;;;;;;5094038;28;20047;-67
2022/07/05 08:04:25;;;;;;;2.92;0.77;;;;;;;;;;5091394;28;20504;-67
2022/07/05 08:06:52;;;;;;;1.73;0.60;;;;;;;;;;5080051;28;20044;-67
2022/07/05 08:09:18;;;;;;;1.52;0.65;;;;;;;;;;5094029;28;20048;-66
2022/07/05 08:11:46;;;;;;;2.53;0.63;;;;;;;;;;5094067;28;20044;-66
2022/07/05 08:14:13;;;;;;;3.10;0.60;;;;;;;;;;5093844;28;20052;-66
2022/07/05 08:16:40;;;;;;;2.50;0.70;;;;;;;;;;5093635;28;20056;-67
2022/07/05 08:22:01;;;;;;;2.67;0.65;;;;;;;;;;5093847;28;20089;-67
2022/07/05 08:24:28;;;;;;;1.63;0.60;;;;;;;;;;5093039;28;20047;-67
2022/07/05 08:26:54;;;;;;;2.60;1.35;;;;;;;;;;5093829;28;20079;-66
2022/07/05 08:29:20;;;;;;;2.50;0.73;;;;;;;;;;5092002;28;20109;-67
2022/07/05 08:31:51;;;;;;;2.20;1.17;;;;;;;;;;5092700;28;20044;-67
2022/07/05 08:34:18;;;;;;;2.05;1.00;;;;;;;;;;5093289;28;20048;-67
2022/07/05 08:36:45;;;;;;;2.45;0.93;;;;;;;;;;5093417;28;20044;-67
2022/07/05 08:39:12;;;;;;;3.20;1.00;;;;;;;;;;5093417;28;20076;-67
2022/07/05 08:41:38;;;;;;;;;;;;;;;;;;5093602;28;20097;-67
2022/07/05 08:44:05;;;;;;;3.72;1.00;;;;;;;;;;5093091;28;19919;-67
2022/07/05 08:46:32;;;;;;;2.20;0.82;;;;;;;;;;5093276;28;20075;-67
2022/07/05 08:49:06;;;;;;;2.25;0.73;;;;;;;;;;5093359;28;20400;-67
2022/07/05 08:51:38;;;;;;;2.15;0.70;;;;;;;;;;5093338;28;20051;-67
2022/07/05 08:54:06;;;;;;;2.00;1.08;;;;;;;;;;5093006;28;20048;-67
2022/07/05 08:56:34;;;;;;;3.50;0.82;;;;;;;;;;5093131;28;20058;-67
2022/07/05 08:59:20;;;;;;;1.67;0.60;;;;;;;;;;5093084;28;20493;-67
2022/07/05 09:01:47;;;;;;;2.20;0.95;;;;;;;;;;5093108;28;20044;-67
2022/07/05 09:04:16;;;;;;;2.58;0.70;;;;;;;;;;5093116;28;20150;-67
2022/07/05 09:06:45;;;;;;;1.42;0.70;;;;;;;;;;5091572;28;20051;-67
2022/07/05 09:09:12;;;;;;;1.13;0.60;;;;;;;;;;5092577;28;20043;-67
2022/07/05 09:11:40;;;;;;;2.67;0.70;;;;;;;;;;5092574;28;20043;-67
2022/07/05 09:14:22;;;;;;;2.33;1.00;;;;;;;;;;5092820;28;20121;-67
2022/07/05 09:16:55;;;;;;;1.35;0.80;;;;;;;;;;5092922;28;20044;-67
2022/07/05 09:19:21;;;;;;;;;;;;;;;;;;5093307;28;20093;-67
2022/07/05 09:21:50;;;;;;;1.90;0.80;;;;;;;;;;5092166;28;20348;-66
2022/07/05 09:24:16;;;;;;;2.13;0.60;;;;;;;;;;5091459;28;20070;-66
2022/07/05 09:26:44;;;;;;;4.13;1.00;;;;;;;;;;5092159;28;20044;-66
2022/07/05 09:29:15;;;;;;;1.65;0.85;;;;;;;;;;5092166;28;20040;-66
2022/07/05 09:32:02;;;;;;;1.92;0.80;;;;;;;;;;5092405;28;20052;-66
2022/07/05 09:34:30;;;;;;;2.60;0.70;;;;;;;;;;5092179;28;20508;-66
2022/07/05 09:36:57;;;;;;;2.95;0.75;;;;;;;;;;5092175;28;20056;-66
2022/07/05 09:39:30;;;;;;;1.73;0.60;;;;;;;;;;5090831;28;20239;-66
2022/07/05 09:42:09;;;;;;;2.80;0.88;;;;;;;;;;5091830;28;20056;-66
2022/07/05 09:44:43;;;;;;;1.75;0.60;;;;;;;;;;5091566;28;20048;-66
2022/07/05 09:47:12;;;;;;;2.50;0.70;;;;;;;;;;5091693;28;20120;-67
2022/07/05 09:49:40;;;;;;;2.67;0.73;;;;;;;;;;5091790;28;20101;-67
2022/07/05 09:52:28;;;;;;;2.33;0.80;;;;;;;;;;5091805;28;20079;-66
2022/07/05 09:55:00;;;;;;;2.80;0.80;;;;;;;;;;5091797;28;20039;-67
2022/07/05 09:57:27;;;;;;;1.55;0.57;;;;;;;;;;5091956;28;20424;-67
2022/07/05 10:00:01;;;;;;;3.50;0.93;;;;;;;;;;5091722;28;20492;-67
2022/07/05 10:02:37;;;;;;;2.13;0.88;;;;;;;;;;5092067;28;20052;-66
2022/07/05 10:05:19;;;;;;;4.20;0.80;;;;;;;;;;5091685;28;20066;-67
2022/07/05 10:07:45;;;;;;;1.25;0.55;;;;;;;;;;5092093;28;20056;-67
2022/07/05 10:10:13;;;;;;;1.23;0.68;;;;;;;;;;5091846;28;20072;-67
2022/07/05 10:12:41;;;;;;;1.30;0.63;;;;;;;;;;5091336;28;20457;-67
2022/07/05 10:15:08;;;;;;;2.45;0.88;;;;;;;;;;5091177;28;20055;-67
2022/07/05 10:17:44;;;;;;;2.42;0.85;;;;;;;;;;5091609;28;20411;-67
2022/07/05 10:20:19;;;;;;;1.52;0.80;;;;;;;;;;5091825;28;20078;-66
2022/07/05 10:22:46;;;;;;;2.60;0.93;;;;;;;;;;5091641;28;20545;-66
2022/07/05 10:25:13;;;;;;;2.15;0.82;;;;;;;;;;5091336;28;20040;-67
2022/07/05 10:27:40;;;;;;;2.20;1.05;;;;;;;;;;5090581;28;20052;-66
2022/07/05 10:30:07;;;;;;;2.58;1.10;;;;;;;;;;5091549;28;20079;-67
2022/07/05 10:32:35;;;;;;;2.30;1.00;;;;;;;;;;5090481;28;20048;-66
2022/07/05 10:35:03;;;;;;;2.75;1.33;;;;;;;;;;5091409;28;20052;-67
2022/07/05 10:37:31;;;;;;;1.77;1.10;;;;;;;;;;5091557;28;20052;-66
2022/07/05 10:39:59;;;;;;;2.20;0.95;;;;;;;;;;5091706;28;20048;-66
2022/07/05 10:42:27;;;;;;;2.78;1.20;;;;;;;;;;5091423;28;20079;-66
2022/07/05 10:44:54;;;;;;;3.63;1.35;;;;;;;;;;5091236;28;20105;-66
2022/07/05 10:47:21;;;;;;;4.95;1.60;;;;;;;;;;5091248;28;20047;-66
2022/07/05 10:50:20;;;;;;;3.53;2.00;;;;;;;;;;5091649;28;20040;-66
2022/07/05 10:53:03;;;;;;;3.63;1.38;;;;;;;;;;5035975;28;20052;-66
2022/07/05 10:55:29;;;;;;;1.70;1.02;;;;;;;;;;5095270;28;20105;-66
2022/07/05 10:58:14;;;;;;;2.40;1.02;;;;;;;;;;5095192;28;20617;-66
2022/07/05 11:00:41;;;;;;;3.10;1.02;;;;;;;;;;5095430;28;20097;-66
2022/07/05 11:03:28;;;;;;;3.05;1.15;;;;;;;;;;5095096;28;20086;-66
2022/07/05 11:05:54;;;;;;;3.20;1.23;;;;;;;;;;5094587;28;20080;-67
2022/07/05 11:08:21;;;;;;;2.95;1.02;;;;;;;;;;5095330;28;20052;-66
2022/07/05 11:11:06;;;;;;;1.65;0.90;;;;;;;;;;5095003;28;20484;-66
2022/07/05 11:13:36;;;;;;;3.35;1.02;;;;;;;;;;5094983;28;20040;-66
2022/07/05 11:16:22;;;;;;;2.70;1.00;;;;;;;;;;5095166;28;20084;-66
2022/07/05 11:18:51;;;;;;;4.68;1.40;;;;;;;;;;5094858;28;20052;-66
2022/07/05 11:21:18;;;;;;;4.90;1.20;;;;;;;;;;5095120;28;20448;-66
2022/07/05 11:23:44;;;;;;;2.92;1.20;;;;;;;;;;5094689;28;20044;-66
2022/07/05 11:26:12;;;;;;;2.55;1.23;;;;;;;;;;5094627;28;20523;-66
2022/07/05 11:28:45;;;;;;;3.15;1.13;;;;;;;;;;5094827;28;20040;-66
2022/07/05 11:31:11;;;;;;;2.70;1.08;;;;;;;;;;5094841;28;20048;-66
2022/07/05 11:33:44;;;;;;;3.22;1.20;;;;;;;;;;5094811;28;20075;-66
2022/07/05 11:36:27;;;;;;;3.00;1.10;;;;;;;;;;5094676;28;20075;-66
2022/07/05 11:39:07;;;;;;;4.18;1.20;;;;;;;;;;5094575;28;20044;-66
2022/07/05 11:41:41;;;;;;;2.22;1.05;;;;;;;;;;5094246;28;20048;-66
2022/07/05 11:44:08;;;;;;;1.60;0.90;;;;;;;;;;5092730;28;20109;-66
2022/07/05 11:46:34;;;;;;;3.70;1.67;;;;;;;;;;5094140;28;20071;-66
2022/07/05 11:49:20;;;;;;;4.55;1.10;;;;;;;;;;5094151;28;20048;-66
2022/07/05 11:51:57;;;;;;;3.88;1.02;;;;;;;;;;5092181;28;20135;-66
2022/07/05 11:54:25;;;;;;;3.75;0.95;;;;;;;;;;5084327;28;20045;-67
2022/07/05 11:56:52;;;;;;;1.95;0.90;;;;;;;;;;5088598;28;20495;-67
2022/07/05 11:59:22;;;;;;;2.38;0.90;;;;;;;;;;5091513;28;20052;-67
2022/07/05 12:01:49;;;;;;;4.70;1.15;;;;;;;;;;5092432;28;20063;-67
2022/07/05 12:04:22;;;;;;;3.88;1.33;;;;;;;;;;5092989;28;20078;-67
2022/07/05 12:06:50;;;;;;;3.60;0.93;;;;;;;;;;5092828;28;20048;-67
2022/07/05 12:09:22;;;;;;;3.45;1.20;;;;;;;;;;5093055;28;20138;-68
2022/07/05 12:14:34;;;;;;;2.85;1.08;;;;;;;;;;5093121;28;20094;-67
2022/07/05 12:17:18;;;;;;;2.83;1.15;;;;;;;;;;5092673;28;20071;-67
2022/07/05 12:19:51;;;;;;;3.15;1.58;;;;;;;;;;5093178;28;20044;-67
2022/07/05 12:22:27;;;;;;;3.95;1.27;;;;;;;;;;5091328;28;20228;-67
2022/07/05 12:24:53;;;;;;;3.80;1.52;;;;;;;;;;5093041;28;20483;-66
2022/07/05 12:27:20;;;;;;;3.08;0.98;;;;;;;;;;5091881;28;20106;-66
2022/07/05 12:29:47;;;;;;;1.80;0.80;;;;;;;;;;5092641;28;20090;-66
2022/07/05 12:32:13;;;;;;;2.15;0.82;;;;;;;;;;5092930;28;20544;-68
2022/07/05 12:34:40;;;;;;;3.05;1.17;;;;;;;;;;5084298;28;20064;-67
2022/07/05 12:37:06;;;;;;;5.30;1.10;;;;;;;;;;5093216;28;20056;-67
2022/07/05 12:39:33;;;;;;;2.47;0.88;;;;;;;;;;5092371;28;20083;-68
2022/07/05 12:42:00;;;;;;;3.50;1.20;;;;;;;;;;5092646;28;20055;-68
2022/07/05 12:44:26;;;;;;;4.13;1.02;;;;;;;;;;5092432;28;20081;-68
2022/07/05 12:47:02;;;;;;;3.00;0.75;;;;;;;;;;5088831;28;20431;-67
2022/07/05 12:49:29;;;;;;;2.53;0.88;;;;;;;;;;5089638;28;20044;-68
2022/07/05 12:52:02;;;;;;;2.88;1.08;;;;;;;;;;5092651;28;20131;-67
2022/07/05 13:00:12;;;;;;;2.97;1.13;;;;;;;;;;5093108;28;20048;-68
2022/07/05 13:02:40;;;;;;;3.03;1.10;;;;;;;;;;5091705;28;20050;-68
2022/07/05 13:05:07;;;;;;;3.25;0.90;;;;;;;;;;5092914;28;20128;-69
2022/07/05 13:07:41;;;;;;;3.60;1.15;;;;;;;;;;5092591;28;20082;-68
2022/07/05 13:10:33;;;;;;;2.28;0.90;;;;;;;;;;5093060;28;20102;-68
2022/07/05 13:13:06;;;;;;;2.97;0.93;;;;;;;;;;5092795;28;20404;-68
2022/07/05 13:15:33;;;;;;;2.50;1.27;;;;;;;;;;5092580;28;20048;-68
2022/07/05 13:17:59;;;;;;;2.72;1.10;;;;;;;;;;5092129;28;20047;-67
2022/07/05 13:20:26;;;;;;;1.70;1.10;;;;;;;;;;5092429;28;20059;-68
2022/07/05 13:22:53;;;;;;;3.67;1.33;;;;;;;;;;5092203;28;20450;-68
2022/07/05 13:25:19;;;;;;;3.58;1.10;;;;;;;;;;5092261;28;20052;-67
2022/07/05 13:27:46;;;;;;;2.75;1.10;;;;;;;;;;5092537;28;20480;-68
2022/07/05 13:30:13;;;;;;;2.53;0.82;;;;;;;;;;5092259;28;20483;-68
2022/07/05 13:32:40;;;;;;;2.85;1.38;;;;;;;;;;5090352;28;20043;-66
2022/07/05 13:35:07;;;;;;;1.88;1.50;;;;;;;;;;5092210;28;20123;-67
2022/07/05 13:37:33;;;;;;;;;;;;;;;;;;5092864;28;20093;-68
2022/07/05 13:40:00;;;;;;;2.92;1.20;;;;;;;;;;5092486;28;20052;-68
2022/07/05 13:42:26;;;;;;;2.13;1.00;;;;;;;;;;5092331;28;20097;-67
2022/07/05 13:44:53;;;;;;;3.47;1.13;;;;;;;;;;5092067;28;20060;-67
2022/07/05 13:47:19;;;;;;;3.28;1.05;;;;;;;;;;5092174;28;20048;-67
2022/07/05 13:49:46;;;;;;;4.28;1.10;;;;;;;;;;5092354;28;20093;-67
2022/07/05 13:52:12;;;;;;;2.63;1.02;;;;;;;;;;5092029;28;20094;-68
2022/07/05 13:54:42;;;;;;;1.75;1.10;;;;;;;;;;5091653;28;20105;-68
2022/07/05 13:57:08;;;;;;;2.80;1.17;;;;;;;;;;5091998;28;20044;-68
2022/07/05 13:59:35;;;;;;;3.83;1.05;;;;;;;;;;5091871;28;20389;-68
2022/07/05 14:02:01;;;;;;;2.28;0.70;;;;;;;;;;5092130;28;20048;-68
2022/07/05 14:04:29;;;;;;;1.85;0.95;;;;;;;;;;5092043;28;20063;-68
2022/07/05 14:06:56;;;;;;;2.17;0.90;;;;;;;;;;5091929;28;20048;-68
2022/07/05 14:09:25;;;;;;;2.33;1.00;;;;;;;;;;5091936;28;20044;-68
2022/07/05 14:11:54;;;;;;;2.42;0.90;;;;;;;;;;5091452;28;20070;-78
2022/07/05 14:14:21;;;;;;;2.78;0.90;;;;;;;;;;5092087;28;20109;-76
2022/07/05 14:16:47;;;;;;;2.75;1.20;;;;;;;;;;5089774;28;20052;-76
2022/07/05 14:19:14;;;;;;;3.22;1.00;;;;;;;;;;5080235;28;20079;-76
2022/07/05 14:21:45;;;;;;;;;;;;;;;;;;5091961;28;20044;-77
2022/07/05 14:24:11;;;;;;;2.15;1.00;;;;;;;;;;5089143;28;19967;-75
2022/07/05 14:26:39;;;;;;;1.83;0.95;;;;;;;;;;5086724;28;20048;-74
2022/07/05 14:29:06;;;;;;;2.30;1.23;;;;;;;;;;5093076;28;20500;-76
2022/07/05 14:31:33;;;;;;;2.95;1.23;;;;;;;;;;5095176;28;20044;-75
2022/07/05 14:34:00;;;;;;;3.10;1.52;;;;;;;;;;5095056;28;20052;-74
2022/07/05 14:36:26;;;;;;;2.38;1.30;;;;;;;;;;5095346;28;20462;-75
2022/07/05 14:38:53;;;;;;;4.15;1.35;;;;;;;;;;5095050;28;20097;-72
2022/07/05 14:41:19;;;;;;;2.65;1.13;;;;;;;;;;5095372;28;20051;-72
2022/07/05 14:43:46;;;;;;;3.72;1.25;;;;;;;;;;5093532;28;20621;-72
2022/07/05 14:46:17;;;;;;;4.05;1.40;;;;;;;;;;5094854;28;20557;-71
2022/07/05 14:48:46;;;;;;;2.15;1.15;;;;;;;;;;5094870;28;20040;-73
2022/07/05 14:51:12;;;;;;;;;;;;;;;;;;5095353;28;20544;-73
2022/07/05 14:53:41;;;;;;;;;;;;;;;;;;5093306;28;19924;-74
2022/07/05 14:56:08;;;;;;;1.80;0.70;;;;;;;;;;5094780;28;20300;-73
2022/07/05 14:58:34;;;;;;;3.03;0.93;;;;;;;;;;5094969;28;20097;-73
2022/07/05 15:01:01;;;;;;;1.80;0.80;;;;;;;;;;5094914;28;20044;-73
2022/07/05 15:03:28;;;;;;;1.40;1.00;;;;;;;;;;5093238;28;20101;-74
2022/07/05 15:05:54;;;;;;;1.25;0.93;;;;;;;;;;5094503;28;20547;-72
2022/07/05 15:08:21;;;;;;;0.80;0.60;;;;;;;;;;5094591;28;20104;-72